createdAt,value
2022-11-29T00:12:12.042Z,1015.8
2022-11-29T00:41:12.993Z,1015.79
2022-11-29T01:10:15.034Z,1015.77
2022-11-29T01:39:07.314Z,1015.93
2022-11-29T02:08:01.534Z,1015.83
2022-11-29T02:37:12.310Z,1015.62
2022-11-29T03:05:45.868Z,1015.82
2022-11-29T03:34:51.796Z,1016.03
2022-11-29T04:03:22.213Z,1016.25
2022-11-29T04:32:25.229Z,1016.37
2022-11-29T05:01:28.423Z,1016.61
2022-11-29T05:30:25.669Z,1016.78
2022-11-29T05:59:20.452Z,1016.94
2022-11-29T06:28:16.852Z,1017.14
2022-11-29T06:57:07.810Z,1017.43
2022-11-29T07:25:52.460Z,1017.66
2022-11-29T07:54:38.327Z,1017.75
2022-11-29T08:23:31.962Z,1017.87
2022-11-29T08:52:28.047Z,1018.11
2022-11-29T09:20:56.336Z,1018.27
2022-11-29T09:49:44.907Z,1018.59
2022-11-29T10:18:42.140Z,1018.65
2022-11-29T10:47:41.107Z,1018.6
2022-11-29T11:16:38.662Z,1018.46
2022-11-29T11:45:02.721Z,1018.6
2022-11-29T12:13:34.606Z,1018.6
2022-11-29T12:42:18.933Z,1018.77
2022-11-29T13:11:01.810Z,1018.91
2022-11-29T13:39:45.358Z,1019.01
2022-11-29T14:08:26.317Z,1019.05
2022-11-29T14:37:15.097Z,1019.17
2022-11-29T15:06:06.272Z,1019.34
2022-11-29T15:34:50.652Z,1019.43
2022-11-29T16:03:39.797Z,1019.62
2022-11-29T16:32:32.182Z,1019.71
2022-11-29T17:01:09.306Z,1019.88
2022-11-29T17:29:53.271Z,1019.97
2022-11-29T17:58:43.749Z,1020.1
2022-11-29T18:27:18.755Z,1020.2
2022-11-29T18:56:00.851Z,1020.23
2022-11-29T19:24:42.732Z,1020.44
2022-11-29T19:53:23.751Z,1020.49
2022-11-29T20:22:04.688Z,1020.59
2022-11-29T20:50:54.962Z,1020.64
2022-11-29T21:19:40.247Z,1020.72
2022-11-29T21:48:13.687Z,1020.79
2022-11-29T22:16:53.670Z,1020.83
2022-11-29T22:45:33.827Z,1020.76
2022-11-29T23:14:19.849Z,1020.77
2022-11-29T23:43:05.988Z,1020.86
